Terminal Aerodrome Forecast
Issued by NWS

Home | Current Version | Previous Version | Text Only | Print | Product List | Glossary On
Versions: 1 2 3 4 5 6 7 8 9 10 11 12 13 14 15 16 17 18 19 20 21 22 23 24 25 26 27 28 29 30 31 32 33 34 35 36 37 38 39 40 41
000
FTUS44 KHGX 302334
TAFSGR
TAF
KSGR 302334Z 3100/3124 14008KT P6SM FEW020 SCT120 BKN250
     FM311000 19003KT P6SM FEW015 SCT030 BKN150
      TEMPO 3112/3116 SHRA BKN028 OVC050
     FM311600 16007KT P6SM VCSH BKN035 OVC080
      TEMPO 3116/3119 -SHRA BKN035=

USA.gov is the U.S. government's official web portal to all federal, state and local government web resources and services.